sensor_id;sensor_type;location;lat;lon;timestamp;P1;durP1;ratioP1;P2;durP2;ratioP2
78612;SDS011;67933;51.060;3.638;2023-04-16T12:50:56;5.55;;;2.78;;
78612;SDS011;67933;51.060;3.638;2023-04-16T12:57:21;5.97;;;3.35;;
78612;SDS011;67933;51.060;3.638;2023-04-16T12:59:52;6.45;;;3.22;;
78612;SDS011;67933;51.060;3.638;2023-04-16T13:02:21;5.57;;;2.85;;
78612;SDS011;67933;51.060;3.638;2023-04-16T13:04:47;4.38;;;3.30;;
78612;SDS011;67933;51.060;3.638;2023-04-16T13:07:13;4.60;;;3.10;;
78612;SDS011;67933;51.060;3.638;2023-04-16T13:09:38;6.60;;;2.83;;
78612;SDS011;67933;51.060;3.638;2023-04-16T13:12:04;4.40;;;3.03;;
78612;SDS011;67933;51.060;3.638;2023-04-16T13:14:31;6.82;;;3.25;;
78612;SDS011;67933;51.060;3.638;2023-04-16T13:16:56;5.78;;;3.45;;
78612;SDS011;67933;51.060;3.638;2023-04-16T13:19:21;4.38;;;2.92;;
78612;SDS011;67933;51.060;3.638;2023-04-16T13:21:47;4.10;;;2.85;;
78612;SDS011;67933;51.060;3.638;2023-04-16T13:24:12;3.63;;;2.80;;
78612;SDS011;67933;51.060;3.638;2023-04-16T13:26:37;8.55;;;3.60;;
78612;SDS011;67933;51.060;3.638;2023-04-16T13:29:03;7.72;;;3.47;;
78612;SDS011;67933;51.060;3.638;2023-04-16T13:31:28;4.65;;;2.83;;
78612;SDS011;67933;51.060;3.638;2023-04-16T13:33:54;5.80;;;2.90;;
78612;SDS011;67933;51.060;3.638;2023-04-16T13:36:19;5.15;;;3.15;;
78612;SDS011;67933;51.060;3.638;2023-04-16T13:38:44;5.32;;;2.95;;
78612;SDS011;67933;51.060;3.638;2023-04-16T13:41:10;6.35;;;3.72;;
78612;SDS011;67933;51.060;3.638;2023-04-16T13:43:35;6.88;;;3.65;;
78612;SDS011;67933;51.060;3.638;2023-04-16T13:46:01;5.05;;;3.28;;
78612;SDS011;67933;51.060;3.638;2023-04-16T13:48:27;7.22;;;3.40;;
78612;SDS011;67933;51.060;3.638;2023-04-16T13:50:52;3.45;;;2.90;;
78612;SDS011;67933;51.060;3.638;2023-04-16T13:53:18;5.65;;;3.45;;
78612;SDS011;67933;51.060;3.638;2023-04-16T13:55:43;4.80;;;3.40;;
78612;SDS011;67933;51.060;3.638;2023-04-16T13:58:09;4.35;;;3.28;;
78612;SDS011;67933;51.060;3.638;2023-04-16T14:00:35;4.70;;;3.55;;
78612;SDS011;67933;51.060;3.638;2023-04-16T14:03:01;4.63;;;2.85;;
78612;SDS011;67933;51.060;3.638;2023-04-16T14:05:26;4.22;;;3.03;;
78612;SDS011;67933;51.060;3.638;2023-04-16T14:07:52;4.13;;;2.80;;
78612;SDS011;67933;51.060;3.638;2023-04-16T14:10:17;6.03;;;3.00;;
78612;SDS011;67933;51.060;3.638;2023-04-16T14:12:43;5.07;;;3.38;;
78612;SDS011;67933;51.060;3.638;2023-04-16T14:15:09;6.20;;;3.40;;
78612;SDS011;67933;51.060;3.638;2023-04-16T14:17:35;7.03;;;3.50;;
78612;SDS011;67933;51.060;3.638;2023-04-16T14:20:03;4.72;;;3.35;;
78612;SDS011;67933;51.060;3.638;2023-04-16T14:22:30;5.53;;;2.97;;
78612;SDS011;67933;51.060;3.638;2023-04-16T14:24:56;6.18;;;3.38;;
78612;SDS011;67933;51.060;3.638;2023-04-16T14:27:21;4.93;;;3.05;;
78612;SDS011;67933;51.060;3.638;2023-04-16T14:29:46;5.30;;;3.40;;
78612;SDS011;67933;51.060;3.638;2023-04-16T14:32:12;6.03;;;3.10;;
78612;SDS011;67933;51.060;3.638;2023-04-16T14:34:37;7.53;;;3.65;;
78612;SDS011;67933;51.060;3.638;2023-04-16T14:37:03;4.43;;;3.58;;
78612;SDS011;67933;51.060;3.638;2023-04-16T14:39:28;3.95;;;3.50;;
78612;SDS011;67933;51.060;3.638;2023-04-16T14:41:54;5.43;;;3.72;;
78612;SDS011;67933;51.060;3.638;2023-04-16T14:44:20;8.10;;;3.60;;
78612;SDS011;67933;51.060;3.638;2023-04-16T14:46:46;6.80;;;3.30;;
78612;SDS011;67933;51.060;3.638;2023-04-16T14:49:12;6.55;;;3.28;;
78612;SDS011;67933;51.060;3.638;2023-04-16T14:51:38;6.15;;;3.80;;
78612;SDS011;67933;51.060;3.638;2023-04-16T14:54:04;5.43;;;3.58;;
78612;SDS011;67933;51.060;3.638;2023-04-16T14:56:30;8.43;;;4.03;;
78612;SDS011;67933;51.060;3.638;2023-04-16T14:58:55;6.78;;;4.15;;
78612;SDS011;67933;51.060;3.638;2023-04-16T15:01:21;6.70;;;4.00;;
78612;SDS011;67933;51.060;3.638;2023-04-16T15:03:46;6.35;;;4.10;;
78612;SDS011;67933;51.060;3.638;2023-04-16T15:06:11;4.50;;;3.30;;
78612;SDS011;67933;51.060;3.638;2023-04-16T15:08:37;4.72;;;3.88;;
78612;SDS011;67933;51.060;3.638;2023-04-16T15:11:03;7.72;;;4.22;;
78612;SDS011;67933;51.060;3.638;2023-04-16T15:13:28;6.10;;;4.38;;
78612;SDS011;67933;51.060;3.638;2023-04-16T15:16:00;4.78;;;3.58;;
78612;SDS011;67933;51.060;3.638;2023-04-16T15:18:27;7.35;;;3.78;;
78612;SDS011;67933;51.060;3.638;2023-04-16T15:20:53;4.45;;;4.00;;
78612;SDS011;67933;51.060;3.638;2023-04-16T15:23:19;6.38;;;4.20;;
78612;SDS011;67933;51.060;3.638;2023-04-16T15:25:44;9.60;;;5.15;;
78612;SDS011;67933;51.060;3.638;2023-04-16T15:28:10;4.93;;;3.30;;
78612;SDS011;67933;51.060;3.638;2023-04-16T15:30:36;6.43;;;4.05;;
78612;SDS011;67933;51.060;3.638;2023-04-16T15:33:03;6.38;;;3.45;;
78612;SDS011;67933;51.060;3.638;2023-04-16T15:35:29;5.80;;;3.50;;
78612;SDS011;67933;51.060;3.638;2023-04-16T15:37:54;4.78;;;3.65;;
78612;SDS011;67933;51.060;3.638;2023-04-16T15:40:19;5.30;;;3.50;;
78612;SDS011;67933;51.060;3.638;2023-04-16T15:42:45;6.70;;;3.92;;
78612;SDS011;67933;51.060;3.638;2023-04-16T15:45:10;5.68;;;3.13;;
78612;SDS011;67933;51.060;3.638;2023-04-16T15:47:36;8.38;;;3.08;;
78612;SDS011;67933;51.060;3.638;2023-04-16T15:50:01;4.10;;;2.92;;
78612;SDS011;67933;51.060;3.638;2023-04-16T15:52:27;4.95;;;3.05;;
78612;SDS011;67933;51.060;3.638;2023-04-16T15:54:53;4.80;;;3.05;;
78612;SDS011;67933;51.060;3.638;2023-04-16T15:57:18;6.70;;;3.63;;
78612;SDS011;67933;51.060;3.638;2023-04-16T15:59:44;4.75;;;3.50;;
78612;SDS011;67933;51.060;3.638;2023-04-16T16:02:10;6.53;;;4.25;;
78612;SDS011;67933;51.060;3.638;2023-04-16T16:04:35;5.68;;;3.35;;
78612;SDS011;67933;51.060;3.638;2023-04-16T16:07:00;5.88;;;3.65;;
78612;SDS011;67933;51.060;3.638;2023-04-16T16:09:28;4.53;;;4.05;;
78612;SDS011;67933;51.060;3.638;2023-04-16T16:11:54;4.63;;;4.10;;
78612;SDS011;67933;51.060;3.638;2023-04-16T16:14:21;6.18;;;3.85;;
78612;SDS011;67933;51.060;3.638;2023-04-16T16:16:46;6.40;;;3.83;;
78612;SDS011;67933;51.060;3.638;2023-04-16T16:19:12;5.28;;;3.78;;
78612;SDS011;67933;51.060;3.638;2023-04-16T16:21:37;4.97;;;4.18;;
78612;SDS011;67933;51.060;3.638;2023-04-16T16:24:03;6.10;;;3.92;;
78612;SDS011;67933;51.060;3.638;2023-04-16T16:26:28;5.03;;;3.85;;
78612;SDS011;67933;51.060;3.638;2023-04-16T16:28:54;6.07;;;4.22;;
78612;SDS011;67933;51.060;3.638;2023-04-16T16:31:21;5.43;;;4.30;;
78612;SDS011;67933;51.060;3.638;2023-04-16T16:33:46;5.43;;;4.88;;
78612;SDS011;67933;51.060;3.638;2023-04-16T16:36:12;6.15;;;5.20;;
78612;SDS011;67933;51.060;3.638;2023-04-16T16:38:37;6.15;;;4.82;;
78612;SDS011;67933;51.060;3.638;2023-04-16T16:41:04;6.72;;;4.72;;
78612;SDS011;67933;51.060;3.638;2023-04-16T16:43:31;7.47;;;6.60;;
78612;SDS011;67933;51.060;3.638;2023-04-16T16:45:56;5.95;;;5.30;;
78612;SDS011;67933;51.060;3.638;2023-04-16T16:48:21;5.43;;;4.80;;
78612;SDS011;67933;51.060;3.638;2023-04-16T16:50:47;7.20;;;5.28;;
78612;SDS011;67933;51.060;3.638;2023-04-16T16:53:12;6.13;;;4.97;;
78612;SDS011;67933;51.060;3.638;2023-04-16T16:55:38;5.38;;;4.88;;
78612;SDS011;67933;51.060;3.638;2023-04-16T16:58:03;5.43;;;4.90;;
78612;SDS011;67933;51.060;3.638;2023-04-16T17:00:28;6.28;;;5.40;;
78612;SDS011;67933;51.060;3.638;2023-04-16T17:02:54;6.82;;;6.03;;
78612;SDS011;67933;51.060;3.638;2023-04-16T17:05:20;6.80;;;5.95;;
78612;SDS011;67933;51.060;3.638;2023-04-16T17:07:45;6.40;;;5.80;;
78612;SDS011;67933;51.060;3.638;2023-04-16T17:10:11;6.97;;;6.38;;
78612;SDS011;67933;51.060;3.638;2023-04-16T17:12:39;7.57;;;6.53;;
78612;SDS011;67933;51.060;3.638;2023-04-16T17:15:05;10.20;;;7.00;;
78612;SDS011;67933;51.060;3.638;2023-04-16T17:17:32;8.43;;;6.57;;
78612;SDS011;67933;51.060;3.638;2023-04-16T17:19:57;10.18;;;6.97;;
78612;SDS011;67933;51.060;3.638;2023-04-16T17:22:24;10.05;;;6.97;;
78612;SDS011;67933;51.060;3.638;2023-04-16T17:24:50;8.52;;;7.60;;
78612;SDS011;67933;51.060;3.638;2023-04-16T17:27:15;7.90;;;7.07;;
78612;SDS011;67933;51.060;3.638;2023-04-16T17:29:41;7.60;;;6.80;;
78612;SDS011;67933;51.060;3.638;2023-04-16T17:32:06;10.85;;;6.60;;
78612;SDS011;67933;51.060;3.638;2023-04-16T17:34:31;10.00;;;6.57;;
78612;SDS011;67933;51.060;3.638;2023-04-16T17:36:57;8.65;;;5.78;;
78612;SDS011;67933;51.060;3.638;2023-04-16T17:39:22;7.65;;;5.47;;
78612;SDS011;67933;51.060;3.638;2023-04-16T17:41:47;6.70;;;4.57;;
78612;SDS011;67933;51.060;3.638;2023-04-16T17:44:18;6.82;;;4.68;;
78612;SDS011;67933;51.060;3.638;2023-04-16T17:46:43;13.60;;;5.50;;
78612;SDS011;67933;51.060;3.638;2023-04-16T17:49:08;8.18;;;5.93;;
78612;SDS011;67933;51.060;3.638;2023-04-16T17:51:34;7.97;;;5.93;;
78612;SDS011;67933;51.060;3.638;2023-04-16T17:53:59;6.88;;;5.70;;
78612;SDS011;67933;51.060;3.638;2023-04-16T17:56:25;6.65;;;5.65;;
78612;SDS011;67933;51.060;3.638;2023-04-16T17:58:51;12.18;;;7.32;;
78612;SDS011;67933;51.060;3.638;2023-04-16T18:01:16;15.68;;;9.90;;
78612;SDS011;67933;51.060;3.638;2023-04-16T18:03:41;8.70;;;6.57;;
78612;SDS011;67933;51.060;3.638;2023-04-16T18:06:08;7.15;;;5.55;;
78612;SDS011;67933;51.060;3.638;2023-04-16T18:08:33;7.63;;;6.80;;
78612;SDS011;67933;51.060;3.638;2023-04-16T18:11:04;8.80;;;5.68;;
78612;SDS011;67933;51.060;3.638;2023-04-16T18:13:31;8.88;;;6.30;;
78612;SDS011;67933;51.060;3.638;2023-04-16T18:15:56;6.03;;;5.28;;
78612;SDS011;67933;51.060;3.638;2023-04-16T18:18:21;10.73;;;5.20;;
78612;SDS011;67933;51.060;3.638;2023-04-16T18:20:47;7.97;;;5.00;;
78612;SDS011;67933;51.060;3.638;2023-04-16T18:23:12;7.95;;;5.40;;
78612;SDS011;67933;51.060;3.638;2023-04-16T18:25:38;6.80;;;5.15;;
78612;SDS011;67933;51.060;3.638;2023-04-16T18:28:03;8.88;;;6.53;;
78612;SDS011;67933;51.060;3.638;2023-04-16T18:30:30;7.05;;;6.35;;
78612;SDS011;67933;51.060;3.638;2023-04-16T18:32:55;8.02;;;6.80;;
78612;SDS011;67933;51.060;3.638;2023-04-16T18:35:21;10.73;;;6.65;;
78612;SDS011;67933;51.060;3.638;2023-04-16T18:37:46;9.35;;;6.90;;
78612;SDS011;67933;51.060;3.638;2023-04-16T18:40:12;10.15;;;7.85;;
78612;SDS011;67933;51.060;3.638;2023-04-16T18:42:37;9.10;;;6.60;;
78612;SDS011;67933;51.060;3.638;2023-04-16T18:45:03;7.28;;;5.45;;
78612;SDS011;67933;51.060;3.638;2023-04-16T18:47:29;6.93;;;5.50;;
78612;SDS011;67933;51.060;3.638;2023-04-16T18:49:55;7.10;;;5.50;;
78612;SDS011;67933;51.060;3.638;2023-04-16T18:52:20;7.75;;;5.93;;
78612;SDS011;67933;51.060;3.638;2023-04-16T18:54:46;8.82;;;6.07;;
78612;SDS011;67933;51.060;3.638;2023-04-16T18:57:11;8.85;;;6.72;;
78612;SDS011;67933;51.060;3.638;2023-04-16T18:59:36;10.20;;;6.57;;
78612;SDS011;67933;51.060;3.638;2023-04-16T19:02:02;8.48;;;6.43;;
78612;SDS011;67933;51.060;3.638;2023-04-16T19:04:27;9.93;;;7.03;;
78612;SDS011;67933;51.060;3.638;2023-04-16T19:06:53;9.90;;;8.07;;
78612;SDS011;67933;51.060;3.638;2023-04-16T19:09:18;12.77;;;7.57;;
78612;SDS011;67933;51.060;3.638;2023-04-16T19:11:44;10.35;;;7.43;;
78612;SDS011;67933;51.060;3.638;2023-04-16T19:14:09;10.02;;;7.38;;
78612;SDS011;67933;51.060;3.638;2023-04-16T19:16:35;13.52;;;8.35;;
78612;SDS011;67933;51.060;3.638;2023-04-16T19:19:00;12.70;;;9.10;;
78612;SDS011;67933;51.060;3.638;2023-04-16T19:21:26;12.60;;;9.07;;
78612;SDS011;67933;51.060;3.638;2023-04-16T19:23:51;13.90;;;9.57;;
78612;SDS011;67933;51.060;3.638;2023-04-16T19:26:17;14.25;;;9.40;;
78612;SDS011;67933;51.060;3.638;2023-04-16T19:28:43;13.48;;;9.18;;
78612;SDS011;67933;51.060;3.638;2023-04-16T19:31:09;11.98;;;8.25;;
78612;SDS011;67933;51.060;3.638;2023-04-16T19:33:35;9.30;;;7.00;;
78612;SDS011;67933;51.060;3.638;2023-04-16T19:36:00;9.18;;;6.82;;
78612;SDS011;67933;51.060;3.638;2023-04-16T19:38:26;7.38;;;6.00;;
78612;SDS011;67933;51.060;3.638;2023-04-16T19:40:52;9.00;;;6.38;;
78612;SDS011;67933;51.060;3.638;2023-04-16T19:43:17;9.10;;;7.03;;
78612;SDS011;67933;51.060;3.638;2023-04-16T19:45:43;8.98;;;6.55;;
78612;SDS011;67933;51.060;3.638;2023-04-16T19:48:10;7.22;;;5.80;;
78612;SDS011;67933;51.060;3.638;2023-04-16T19:50:39;11.60;;;8.40;;
78612;SDS011;67933;51.060;3.638;2023-04-16T19:53:07;13.30;;;8.65;;
78612;SDS011;67933;51.060;3.638;2023-04-16T19:55:33;10.25;;;8.25;;
78612;SDS011;67933;51.060;3.638;2023-04-16T19:57:58;15.27;;;9.52;;
78612;SDS011;67933;51.060;3.638;2023-04-16T20:00:30;15.18;;;9.95;;
78612;SDS011;67933;51.060;3.638;2023-04-16T20:03:00;16.73;;;10.57;;
78612;SDS011;67933;51.060;3.638;2023-04-16T20:05:25;14.80;;;9.07;;
78612;SDS011;67933;51.060;3.638;2023-04-16T20:07:54;10.55;;;7.40;;
78612;SDS011;67933;51.060;3.638;2023-04-16T20:10:21;13.90;;;9.02;;
78612;SDS011;67933;51.060;3.638;2023-04-16T20:12:46;15.48;;;9.60;;
78612;SDS011;67933;51.060;3.638;2023-04-16T20:15:12;13.50;;;9.55;;
78612;SDS011;67933;51.060;3.638;2023-04-16T20:17:38;11.70;;;8.40;;
78612;SDS011;67933;51.060;3.638;2023-04-16T20:20:03;12.98;;;8.55;;
78612;SDS011;67933;51.060;3.638;2023-04-16T20:22:34;10.23;;;8.32;;
78612;SDS011;67933;51.060;3.638;2023-04-16T20:25:00;11.95;;;9.25;;
78612;SDS011;67933;51.060;3.638;2023-04-16T20:27:27;15.65;;;9.32;;
78612;SDS011;67933;51.060;3.638;2023-04-16T20:29:54;14.00;;;10.00;;
78612;SDS011;67933;51.060;3.638;2023-04-16T20:32:19;18.20;;;10.48;;
78612;SDS011;67933;51.060;3.638;2023-04-16T20:34:45;19.02;;;13.05;;
78612;SDS011;67933;51.060;3.638;2023-04-16T20:37:11;15.40;;;10.13;;
78612;SDS011;67933;51.060;3.638;2023-04-16T20:39:36;18.52;;;11.07;;
78612;SDS011;67933;51.060;3.638;2023-04-16T20:42:04;18.00;;;11.07;;
78612;SDS011;67933;51.060;3.638;2023-04-16T20:44:34;14.32;;;9.93;;
78612;SDS011;67933;51.060;3.638;2023-04-16T20:47:07;15.48;;;10.23;;
78612;SDS011;67933;51.060;3.638;2023-04-16T20:49:34;12.95;;;8.88;;
78612;SDS011;67933;51.060;3.638;2023-04-16T20:52:00;14.60;;;9.65;;
78612;SDS011;67933;51.060;3.638;2023-04-16T20:54:29;16.08;;;10.18;;
78612;SDS011;67933;51.060;3.638;2023-04-16T20:56:55;15.27;;;10.43;;
78612;SDS011;67933;51.060;3.638;2023-04-16T20:59:21;15.25;;;11.07;;
78612;SDS011;67933;51.060;3.638;2023-04-16T21:01:47;18.10;;;10.65;;
78612;SDS011;67933;51.060;3.638;2023-04-16T21:04:13;16.60;;;10.85;;
78612;SDS011;67933;51.060;3.638;2023-04-16T21:06:38;15.75;;;11.10;;
78612;SDS011;67933;51.060;3.638;2023-04-16T21:09:07;17.42;;;11.32;;
78612;SDS011;67933;51.060;3.638;2023-04-16T21:11:32;17.92;;;10.95;;
78612;SDS011;67933;51.060;3.638;2023-04-16T21:13:59;17.02;;;11.82;;
78612;SDS011;67933;51.060;3.638;2023-04-16T21:16:24;16.75;;;11.15;;
78612;SDS011;67933;51.060;3.638;2023-04-16T21:18:50;16.70;;;11.35;;
78612;SDS011;67933;51.060;3.638;2023-04-16T21:21:15;19.67;;;12.10;;
78612;SDS011;67933;51.060;3.638;2023-04-16T21:23:40;16.50;;;10.10;;
78612;SDS011;67933;51.060;3.638;2023-04-16T21:26:06;11.85;;;9.43;;
78612;SDS011;67933;51.060;3.638;2023-04-16T21:28:31;11.73;;;8.35;;
78612;SDS011;67933;51.060;3.638;2023-04-16T21:30:56;10.35;;;8.27;;
78612;SDS011;67933;51.060;3.638;2023-04-16T21:33:22;11.73;;;7.80;;
78612;SDS011;67933;51.060;3.638;2023-04-16T21:35:51;10.65;;;7.45;;
78612;SDS011;67933;51.060;3.638;2023-04-16T21:38:17;11.63;;;8.45;;
78612;SDS011;67933;51.060;3.638;2023-04-16T21:40:44;11.90;;;8.23;;
78612;SDS011;67933;51.060;3.638;2023-04-16T21:43:09;9.75;;;7.22;;
78612;SDS011;67933;51.060;3.638;2023-04-16T21:45:35;10.65;;;7.55;;
78612;SDS011;67933;51.060;3.638;2023-04-16T21:48:00;9.98;;;7.13;;
78612;SDS011;67933;51.060;3.638;2023-04-16T21:50:26;9.43;;;7.47;;
78612;SDS011;67933;51.060;3.638;2023-04-16T21:52:51;14.70;;;8.40;;
78612;SDS011;67933;51.060;3.638;2023-04-16T21:55:18;12.90;;;8.43;;
78612;SDS011;67933;51.060;3.638;2023-04-16T21:57:44;12.23;;;8.30;;
78612;SDS011;67933;51.060;3.638;2023-04-16T22:00:10;11.10;;;7.95;;
78612;SDS011;67933;51.060;3.638;2023-04-16T22:02:39;11.35;;;7.90;;
78612;SDS011;67933;51.060;3.638;2023-04-16T22:05:05;11.93;;;8.43;;
78612;SDS011;67933;51.060;3.638;2023-04-16T22:07:32;12.40;;;8.25;;
78612;SDS011;67933;51.060;3.638;2023-04-16T22:09:57;11.73;;;8.48;;
78612;SDS011;67933;51.060;3.638;2023-04-16T22:12:23;11.35;;;8.80;;
78612;SDS011;67933;51.060;3.638;2023-04-16T22:14:48;10.35;;;7.85;;
78612;SDS011;67933;51.060;3.638;2023-04-16T22:17:14;11.68;;;7.35;;
78612;SDS011;67933;51.060;3.638;2023-04-16T22:19:41;10.48;;;7.35;;
78612;SDS011;67933;51.060;3.638;2023-04-16T22:22:07;11.18;;;7.38;;
78612;SDS011;67933;51.060;3.638;2023-04-16T22:24:32;12.15;;;8.15;;
78612;SDS011;67933;51.060;3.638;2023-04-16T22:26:58;12.85;;;8.70;;
78612;SDS011;67933;51.060;3.638;2023-04-16T22:29:23;12.32;;;8.70;;
78612;SDS011;67933;51.060;3.638;2023-04-16T22:31:48;11.57;;;7.63;;
78612;SDS011;67933;51.060;3.638;2023-04-16T22:34:14;11.80;;;7.97;;
78612;SDS011;67933;51.060;3.638;2023-04-16T22:36:39;10.80;;;7.05;;
78612;SDS011;67933;51.060;3.638;2023-04-16T22:39:05;11.27;;;7.82;;
78612;SDS011;67933;51.060;3.638;2023-04-16T22:41:33;10.13;;;6.97;;
78612;SDS011;67933;51.060;3.638;2023-04-16T22:43:59;9.15;;;6.95;;
78612;SDS011;67933;51.060;3.638;2023-04-16T22:46:25;9.13;;;6.97;;
78612;SDS011;67933;51.060;3.638;2023-04-16T22:48:51;11.63;;;7.47;;
78612;SDS011;67933;51.060;3.638;2023-04-16T22:51:16;10.60;;;7.30;;
78612;SDS011;67933;51.060;3.638;2023-04-16T22:53:42;9.48;;;7.20;;
78612;SDS011;67933;51.060;3.638;2023-04-16T22:56:07;12.35;;;7.88;;
78612;SDS011;67933;51.060;3.638;2023-04-16T22:58:33;10.23;;;8.07;;
78612;SDS011;67933;51.060;3.638;2023-04-16T23:00:58;12.55;;;7.43;;
78612;SDS011;67933;51.060;3.638;2023-04-16T23:03:25;10.45;;;7.82;;
78612;SDS011;67933;51.060;3.638;2023-04-16T23:05:51;11.20;;;8.18;;
78612;SDS011;67933;51.060;3.638;2023-04-16T23:08:16;13.93;;;8.98;;
78612;SDS011;67933;51.060;3.638;2023-04-16T23:10:42;11.80;;;7.95;;
78612;SDS011;67933;51.060;3.638;2023-04-16T23:13:07;12.65;;;8.57;;
78612;SDS011;67933;51.060;3.638;2023-04-16T23:15:32;11.88;;;8.60;;
78612;SDS011;67933;51.060;3.638;2023-04-16T23:17:58;11.55;;;8.18;;
78612;SDS011;67933;51.060;3.638;2023-04-16T23:20:23;11.52;;;8.35;;
78612;SDS011;67933;51.060;3.638;2023-04-16T23:22:49;12.45;;;8.73;;
78612;SDS011;67933;51.060;3.638;2023-04-16T23:25:14;14.52;;;10.05;;
78612;SDS011;67933;51.060;3.638;2023-04-16T23:27:40;14.50;;;9.98;;
78612;SDS011;67933;51.060;3.638;2023-04-16T23:30:05;16.15;;;10.45;;
78612;SDS011;67933;51.060;3.638;2023-04-16T23:32:32;18.65;;;10.88;;
78612;SDS011;67933;51.060;3.638;2023-04-16T23:35:00;19.52;;;12.23;;
78612;SDS011;67933;51.060;3.638;2023-04-16T23:37:26;18.85;;;11.98;;
78612;SDS011;67933;51.060;3.638;2023-04-16T23:39:51;17.55;;;12.13;;
78612;SDS011;67933;51.060;3.638;2023-04-16T23:42:17;18.98;;;13.00;;
78612;SDS011;67933;51.060;3.638;2023-04-16T23:44:42;18.10;;;12.02;;
78612;SDS011;67933;51.060;3.638;2023-04-16T23:47:08;20.23;;;12.75;;
78612;SDS011;67933;51.060;3.638;2023-04-16T23:49:33;20.15;;;11.88;;
78612;SDS011;67933;51.060;3.638;2023-04-16T23:51:58;21.50;;;13.20;;
78612;SDS011;67933;51.060;3.638;2023-04-16T23:54:24;21.38;;;12.23;;
78612;SDS011;67933;51.060;3.638;2023-04-16T23:56:49;22.73;;;13.80;;
78612;SDS011;67933;51.060;3.638;2023-04-16T23:59:15;22.05;;;13.45;;
